Time,TemperatureF,DewpointF,PressureIn,WindDirection,WindDirectionDegrees,WindSpeedMPH,WindSpeedGustMPH,Humidity,HourlyPrecipIn,Conditions,Clouds,dailyrainin,SoftwareType,DateUTC
2013-04-03 00:01:00,31.5,13.5,30.18,North,0,0.4,3.4,47,0.00,,,0.00,WUHU216HW,2013-04-03 04:01:00,
2013-04-03 00:07:00,31.3,13.3,30.18,North,0,0.4,2.0,47,0.00,,,0.00,WUHU216HW,2013-04-03 04:07:00,
2013-04-03 00:12:00,31.3,13.3,30.18,North,0,1.6,2.0,47,0.00,,,0.00,WUHU216HW,2013-04-03 04:12:00,
2013-04-03 00:17:00,31.1,13.1,30.18,NNW,338,0.4,1.8,47,0.00,,,0.00,WUHU216HW,2013-04-03 04:17:00,
2013-04-03 00:22:00,31.0,13.0,30.18,North,0,1.6,1.6,47,0.00,,,0.00,WUHU216HW,2013-04-03 04:22:00,
2013-04-03 00:27:00,30.8,13.3,30.17,North,0,1.3,1.8,48,0.00,,,0.00,WUHU216HW,2013-04-03 04:27:00,
2013-04-03 00:32:00,30.6,13.1,30.17,North,0,0.4,1.8,48,0.00,,,0.00,WUHU216HW,2013-04-03 04:32:00,
2013-04-03 00:37:00,30.4,13.5,30.17,NW,315,1.1,1.1,49,0.00,,,0.00,WUHU216HW,2013-04-03 04:37:00,
2013-04-03 00:42:00,30.2,13.3,30.17,NNW,338,0.0,1.1,49,0.00,,,0.00,WUHU216HW,2013-04-03 04:42:00,
2013-04-03 00:47:00,30.2,13.3,30.17,North,0,0.0,1.1,49,0.00,,,0.00,WUHU216HW,2013-04-03 04:47:00,
2013-04-03 00:52:00,30.1,13.2,30.17,North,0,0.2,0.9,49,0.00,,,0.00,WUHU216HW,2013-04-03 04:52:00,
2013-04-03 00:58:00,30.1,13.7,30.17,NNW,338,0.9,2.5,50,0.00,,,0.00,WUHU216HW,2013-04-03 04:58:00,
2013-04-03 01:03:00,29.9,13.5,30.17,NNW,338,0.0,2.5,50,0.00,,,0.00,WUHU216HW,2013-04-03 05:03:00,
2013-04-03 01:08:00,29.9,13.5,30.17,NNW,338,0.0,0.9,50,0.00,,,0.00,WUHU216HW,2013-04-03 05:08:00,
2013-04-03 01:13:00,29.5,12.7,30.17,NNW,338,0.0,0.4,49,0.00,,,0.00,WUHU216HW,2013-04-03 05:13:00,
2013-04-03 01:18:00,29.2,12.9,30.17,NNW,338,0.0,0.4,50,0.00,,,0.00,WUHU216HW,2013-04-03 05:18:00,
2013-04-03 01:24:00,29.0,12.7,30.18,West,270,0.0,0.4,50,0.00,,,0.00,WUHU216HW,2013-04-03 05:24:00,
2013-04-03 01:29:00,28.6,12.8,30.18,West,270,0.0,0.4,51,0.00,,,0.00,WUHU216HW,2013-04-03 05:29:00,
2013-04-03 01:34:00,28.4,12.2,30.18,West,270,0.0,0.0,50,0.00,,,0.00,WUHU216HW,2013-04-03 05:34:00,
2013-04-03 01:39:00,28.1,11.9,30.18,West,270,0.0,0.0,50,0.00,,,0.00,WUHU216HW,2013-04-03 05:39:00,
2013-04-03 01:44:00,27.7,12.0,30.18,West,270,0.0,0.0,51,0.00,,,0.00,WUHU216HW,2013-04-03 05:44:00,
2013-04-03 01:49:00,27.5,12.2,30.18,West,270,0.0,0.0,52,0.00,,,0.00,WUHU216HW,2013-04-03 05:49:00,
2013-04-03 01:54:00,27.4,12.0,30.18,West,270,0.0,0.0,52,0.00,,,0.00,WUHU216HW,2013-04-03 05:54:00,
2013-04-03 02:00:00,27.0,11.6,30.19,West,270,0.0,0.0,52,0.00,,,0.00,WUHU216HW,2013-04-03 06:00:00,
2013-04-03 02:05:00,26.8,11.9,30.18,West,270,0.0,0.0,53,0.00,,,0.00,WUHU216HW,2013-04-03 06:05:00,
2013-04-03 02:10:00,26.8,11.9,30.18,West,270,0.0,0.0,53,0.00,,,0.00,WUHU216HW,2013-04-03 06:10:00,
2013-04-03 02:15:00,26.6,11.7,30.19,SSE,158,0.0,0.4,53,0.00,,,0.00,WUHU216HW,2013-04-03 06:15:00,
2013-04-03 02:20:00,26.6,11.7,30.18,SSW,203,0.0,0.4,53,0.00,,,0.00,WUHU216HW,2013-04-03 06:20:00,
2013-04-03 02:25:00,26.5,12.0,30.19,SSW,203,0.0,0.0,54,0.00,,,0.00,WUHU216HW,2013-04-03 06:25:00,
2013-04-03 02:30:00,26.3,12.2,30.19,SSW,203,0.0,0.0,55,0.00,,,0.00,WUHU216HW,2013-04-03 06:30:00,
2013-04-03 02:35:00,26.3,12.2,30.19,WSW,248,0.0,0.4,55,0.00,,,0.00,WUHU216HW,2013-04-03 06:35:00,
2013-04-03 02:40:00,26.1,12.1,30.19,WSW,248,0.0,0.4,55,0.00,,,0.00,WUHU216HW,2013-04-03 06:40:00,
2013-04-03 02:45:00,25.9,11.9,30.19,WSW,248,0.0,0.0,55,0.00,,,0.00,WUHU216HW,2013-04-03 06:45:00,
2013-04-03 02:51:00,25.9,12.2,30.18,North,0,0.0,0.4,56,0.00,,,0.00,WUHU216HW,2013-04-03 06:51:00,
2013-04-03 02:56:00,26.1,12.4,30.19,NW,315,0.7,0.7,56,0.00,,,0.00,WUHU216HW,2013-04-03 06:56:00,
2013-04-03 03:01:00,26.3,13.1,30.18,NW,315,0.0,0.7,57,0.00,,,0.00,WUHU216HW,2013-04-03 07:01:00,
2013-04-03 03:06:00,26.1,12.4,30.19,NW,315,0.0,0.0,56,0.00,,,0.00,WUHU216HW,2013-04-03 07:06:00,
2013-04-03 03:12:00,26.1,12.9,30.18,NW,315,0.0,0.4,57,0.00,,,0.00,WUHU216HW,2013-04-03 07:12:00,
2013-04-03 03:17:00,26.1,12.9,30.19,NW,315,0.0,0.4,57,0.00,,,0.00,WUHU216HW,2013-04-03 07:17:00,
2013-04-03 03:22:00,26.1,12.9,30.18,West,270,0.4,0.4,57,0.00,,,0.00,WUHU216HW,2013-04-03 07:22:00,
2013-04-03 03:27:00,26.1,13.2,30.19,WNW,293,0.0,0.4,58,0.00,,,0.00,WUHU216HW,2013-04-03 07:27:00,
2013-04-03 03:32:00,26.3,13.4,30.19,WNW,293,0.0,0.4,58,0.00,,,0.00,WUHU216HW,2013-04-03 07:32:00,
2013-04-03 03:37:00,26.3,13.4,30.19,NNW,338,0.2,0.4,58,0.00,,,0.00,WUHU216HW,2013-04-03 07:37:00,
2013-04-03 03:42:00,26.3,13.4,30.19,NNW,338,0.0,0.4,58,0.00,,,0.00,WUHU216HW,2013-04-03 07:42:00,
2013-04-03 03:47:00,26.3,13.4,30.19,NNW,338,0.0,0.4,58,0.00,,,0.00,WUHU216HW,2013-04-03 07:47:00,
2013-04-03 03:52:00,26.3,13.4,30.19,NNW,338,0.0,1.1,58,0.00,,,0.00,WUHU216HW,2013-04-03 07:52:00,
2013-04-03 03:57:00,26.5,14.1,30.19,North,0,0.0,1.1,59,0.00,,,0.00,WUHU216HW,2013-04-03 07:57:00,
2013-04-03 04:03:00,26.5,13.6,30.19,North,0,0.0,1.1,58,0.00,,,0.00,WUHU216HW,2013-04-03 08:03:00,
2013-04-03 04:08:00,26.3,13.4,30.19,North,0,0.0,0.0,58,0.00,,,0.00,WUHU216HW,2013-04-03 08:08:00,
2013-04-03 04:13:00,26.1,13.7,30.19,NNW,338,0.0,0.0,59,0.00,,,0.00,WUHU216HW,2013-04-03 08:13:00,
2013-04-03 04:18:00,25.9,13.5,30.19,NNE,23,0.2,0.7,59,0.00,,,0.00,WUHU216HW,2013-04-03 08:18:00,
2013-04-03 04:23:00,25.7,13.3,30.19,WNW,293,0.0,0.7,59,0.00,,,0.00,WUHU216HW,2013-04-03 08:23:00,
2013-04-03 04:28:00,25.6,13.2,30.19,WNW,293,0.0,0.2,59,0.00,,,0.00,WUHU216HW,2013-04-03 08:28:00,
2013-04-03 04:33:00,25.6,13.2,30.19,WNW,293,0.0,0.0,59,0.00,,,0.00,WUHU216HW,2013-04-03 08:33:00,
2013-04-03 04:39:00,25.4,13.1,30.19,WNW,293,0.0,0.0,59,0.00,,,0.00,WUHU216HW,2013-04-03 08:39:00,
2013-04-03 04:44:00,25.2,12.9,30.19,WNW,293,0.0,0.0,59,0.00,,,0.00,WUHU216HW,2013-04-03 08:44:00,
2013-04-03 04:49:00,25.0,12.7,30.20,NNW,338,0.0,0.0,59,0.00,,,0.00,WUHU216HW,2013-04-03 08:49:00,
2013-04-03 04:54:00,24.8,12.5,30.20,NNW,338,0.0,0.0,59,0.00,,,0.00,WUHU216HW,2013-04-03 08:54:00,
2013-04-03 04:59:00,24.8,13.0,30.20,NNW,338,0.0,0.0,60,0.00,,,0.00,WUHU216HW,2013-04-03 08:59:00,
2013-04-03 05:05:00,24.7,12.8,30.20,NNW,338,0.0,0.0,60,0.00,,,0.00,WUHU216HW,2013-04-03 09:05:00,
2013-04-03 05:10:00,24.5,13.0,30.20,NNW,338,0.0,0.0,61,0.00,,,0.00,WUHU216HW,2013-04-03 09:10:00,
2013-04-03 05:15:00,24.1,12.6,30.21,North,0,0.0,0.0,61,0.00,,,0.00,WUHU216HW,2013-04-03 09:15:00,
2013-04-03 05:20:00,24.3,13.2,30.21,North,0,1.8,1.8,62,0.00,,,0.00,WUHU216HW,2013-04-03 09:20:00,
2013-04-03 05:25:00,24.8,14.3,30.21,North,0,0.0,1.8,64,0.00,,,0.00,WUHU216HW,2013-04-03 09:25:00,
2013-04-03 05:30:00,25.2,14.3,30.21,North,0,0.0,1.3,63,0.00,,,0.00,WUHU216HW,2013-04-03 09:30:00,
2013-04-03 05:35:00,25.4,14.1,30.21,North,0,0.0,0.4,62,0.00,,,0.00,WUHU216HW,2013-04-03 09:35:00,
2013-04-03 05:40:00,25.2,14.0,30.22,North,0,0.2,0.4,62,0.00,,,0.00,WUHU216HW,2013-04-03 09:40:00,
2013-04-03 05:45:00,25.2,14.0,30.22,North,0,0.4,0.4,62,0.00,,,0.00,WUHU216HW,2013-04-03 09:45:00,
2013-04-03 05:50:00,25.4,14.1,30.22,North,0,0.0,0.4,62,0.00,,,0.00,WUHU216HW,2013-04-03 09:50:00,
2013-04-03 05:55:00,25.2,14.0,30.22,NNW,338,0.0,0.0,62,0.00,,,0.00,WUHU216HW,2013-04-03 09:55:00,
2013-04-03 06:01:00,25.0,13.8,30.22,NNW,338,0.0,0.0,62,0.00,,,0.00,WUHU216HW,2013-04-03 10:01:00,
2013-04-03 06:06:00,24.8,13.7,30.22,NNW,338,0.0,0.0,62,0.00,,,0.00,WUHU216HW,2013-04-03 10:06:00,
2013-04-03 06:11:00,24.5,13.3,30.22,NNW,338,0.0,0.0,62,0.00,,,0.00,WUHU216HW,2013-04-03 10:11:00,
2013-04-03 06:16:00,24.3,13.2,30.23,NNW,338,0.0,0.0,62,0.00,,,0.00,WUHU216HW,2013-04-03 10:16:00,
2013-04-03 06:21:00,24.1,13.3,30.23,NNW,338,0.0,0.0,63,0.00,,,0.00,WUHU216HW,2013-04-03 10:21:00,
2013-04-03 06:27:00,23.9,13.2,30.23,NNW,338,0.0,0.0,63,0.00,,,0.00,WUHU216HW,2013-04-03 10:27:00,
2013-04-03 06:32:00,23.9,13.9,30.23,WNW,293,0.4,1.3,65,0.00,,,0.00,WUHU216HW,2013-04-03 10:32:00,
2013-04-03 06:37:00,24.1,14.0,30.23,NNW,338,0.0,1.3,65,0.00,,,0.00,WUHU216HW,2013-04-03 10:37:00,
2013-04-03 06:42:00,24.3,14.1,30.24,NNW,338,0.4,0.4,65,0.00,,,0.00,WUHU216HW,2013-04-03 10:42:00,
2013-04-03 06:47:00,24.5,14.3,30.24,North,0,0.7,0.7,65,0.00,,,0.00,WUHU216HW,2013-04-03 10:47:00,
2013-04-03 06:52:00,24.7,14.9,30.24,NNW,338,0.0,0.7,66,0.00,,,0.00,WUHU216HW,2013-04-03 10:52:00,
2013-04-03 06:57:00,24.7,14.5,30.24,NNW,338,0.0,1.1,65,0.00,,,0.00,WUHU216HW,2013-04-03 10:57:00,
2013-04-03 07:03:00,24.5,14.3,30.24,North,0,0.7,1.1,65,0.00,,,0.00,WUHU216HW,2013-04-03 11:03:00,
2013-04-03 07:08:00,24.5,14.3,30.25,North,0,0.0,0.7,65,0.00,,,0.00,WUHU216HW,2013-04-03 11:08:00,
2013-04-03 07:13:00,24.5,14.3,30.25,North,0,0.4,0.4,65,0.00,,,0.00,WUHU216HW,2013-04-03 11:13:00,
2013-04-03 07:18:00,24.3,14.1,30.25,North,0,0.4,0.4,65,0.00,,,0.00,WUHU216HW,2013-04-03 11:18:00,
2013-04-03 07:23:00,24.5,14.3,30.25,NNW,338,0.4,0.4,65,0.00,,,0.00,WUHU216HW,2013-04-03 11:23:00,
2013-04-03 07:28:00,24.5,14.7,30.25,North,0,0.0,0.7,66,0.00,,,0.00,WUHU216HW,2013-04-03 11:28:00,
2013-04-03 07:33:00,24.7,14.9,30.26,North,0,0.0,0.7,66,0.00,,,0.00,WUHU216HW,2013-04-03 11:33:00,
2013-04-03 07:38:00,24.8,15.0,30.26,North,0,0.2,0.4,66,0.00,,,0.00,WUHU216HW,2013-04-03 11:38:00,
2013-04-03 07:43:00,24.8,15.0,30.26,North,0,0.0,0.4,66,0.00,,,0.00,WUHU216HW,2013-04-03 11:43:00,
2013-04-03 07:48:00,25.0,15.2,30.26,NNW,338,0.4,0.9,66,0.00,,,0.00,WUHU216HW,2013-04-03 11:48:00,
2013-04-03 07:53:00,25.2,15.4,30.26,North,0,0.0,0.9,66,0.00,,,0.00,WUHU216HW,2013-04-03 11:53:00,
2013-04-03 07:59:00,25.6,15.7,30.27,North,0,0.2,1.3,66,0.00,,,0.00,WUHU216HW,2013-04-03 11:59:00,
2013-04-03 08:04:00,25.9,16.0,30.27,NW,315,0.7,2.0,66,0.00,,,0.00,WUHU216HW,2013-04-03 12:04:00,
2013-04-03 08:09:00,26.3,16.4,30.27,NNW,338,0.4,2.0,66,0.00,,,0.00,WUHU216HW,2013-04-03 12:09:00,
2013-04-03 08:14:00,26.3,16.0,30.27,NNW,338,0.2,1.1,65,0.00,,,0.00,WUHU216HW,2013-04-03 12:14:00,
2013-04-03 08:20:00,26.6,16.4,30.27,NNW,338,2.5,2.5,65,0.00,,,0.00,WUHU216HW,2013-04-03 12:20:00,
2013-04-03 08:25:00,27.0,16.4,30.27,NNW,338,0.7,2.5,64,0.00,,,0.00,WUHU216HW,2013-04-03 12:25:00,
2013-04-03 08:30:00,27.2,16.2,30.28,NNW,338,1.1,1.6,63,0.00,,,0.00,WUHU216HW,2013-04-03 12:30:00,
2013-04-03 08:35:00,27.2,15.8,30.28,North,0,0.7,2.9,62,0.00,,,0.00,WUHU216HW,2013-04-03 12:35:00,
2013-04-03 08:40:00,27.4,16.0,30.28,North,0,0.4,3.1,62,0.00,,,0.00,WUHU216HW,2013-04-03 12:40:00,
2013-04-03 08:45:00,27.5,15.8,30.28,NW,315,4.3,4.3,61,0.00,,,0.00,WUHU216HW,2013-04-03 12:45:00,
2013-04-03 08:50:00,27.7,16.0,30.28,NNW,338,2.2,4.3,61,0.00,,,0.00,WUHU216HW,2013-04-03 12:50:00,
2013-04-03 08:55:00,27.9,15.4,30.28,NNW,338,1.8,2.7,59,0.00,,,0.00,WUHU216HW,2013-04-03 12:55:00,
2013-04-03 09:01:00,28.1,15.2,30.28,NNW,338,1.8,3.4,58,0.00,,,0.00,WUHU216HW,2013-04-03 13:01:00,
2013-04-03 09:06:00,28.4,15.6,30.29,NNE,23,1.6,3.4,58,0.00,,,0.00,WUHU216HW,2013-04-03 13:06:00,
2013-04-03 09:11:00,28.6,16.1,30.29,North,0,1.8,2.5,59,0.00,,,0.00,WUHU216HW,2013-04-03 13:11:00,
2013-04-03 09:16:00,28.8,15.5,30.29,West,270,2.2,2.2,57,0.00,,,0.00,WUHU216HW,2013-04-03 13:16:00,
2013-04-03 09:21:00,29.0,15.7,30.29,NW,315,1.8,3.8,57,0.00,,,0.00,WUHU216HW,2013-04-03 13:21:00,
2013-04-03 09:26:00,29.2,15.8,30.29,NNW,338,0.4,3.8,57,0.00,,,0.00,WUHU216HW,2013-04-03 13:26:00,
2013-04-03 09:31:00,29.5,15.7,30.29,NNE,23,4.7,4.9,56,0.00,,,0.00,WUHU216HW,2013-04-03 13:31:00,
2013-04-03 09:36:00,29.7,15.8,30.29,NNW,338,1.8,4.9,56,0.00,,,0.00,WUHU216HW,2013-04-03 13:36:00,
2013-04-03 09:41:00,29.9,15.6,30.29,NW,315,3.1,4.3,55,0.00,,,0.00,WUHU216HW,2013-04-03 13:41:00,
2013-04-03 09:46:00,30.1,15.4,30.29,NNW,338,2.7,3.4,54,0.00,,,0.00,WUHU216HW,2013-04-03 13:46:00,
2013-04-03 09:52:00,30.4,15.7,30.29,North,0,0.7,4.7,54,0.00,,,0.00,WUHU216HW,2013-04-03 13:52:00,
2013-04-03 09:57:00,30.6,15.8,30.29,ESE,113,0.9,4.7,54,0.00,,,0.00,WUHU216HW,2013-04-03 13:57:00,
2013-04-03 10:02:00,30.6,15.5,30.30,West,270,2.9,4.3,53,0.00,,,0.00,WUHU216HW,2013-04-03 14:02:00,
2013-04-03 10:07:00,31.0,15.8,30.30,South,180,3.4,3.4,53,0.00,,,0.00,WUHU216HW,2013-04-03 14:07:00,
2013-04-03 10:13:00,31.1,15.9,30.31,NNW,338,2.0,4.5,53,0.00,,,0.00,WUHU216HW,2013-04-03 14:13:00,
2013-04-03 10:18:00,31.3,15.7,30.31,NW,315,5.6,8.3,52,0.00,,,0.00,WUHU216HW,2013-04-03 14:18:00,
2013-04-03 10:23:00,31.3,15.7,30.31,NNE,23,3.4,8.3,52,0.00,,,0.00,WUHU216HW,2013-04-03 14:23:00,
2013-04-03 10:28:00,31.3,15.7,30.31,North,0,2.9,5.4,52,0.00,,,0.00,WUHU216HW,2013-04-03 14:28:00,
2013-04-03 10:33:00,31.9,16.2,30.31,SW,225,2.0,5.4,52,0.00,,,0.00,WUHU216HW,2013-04-03 14:33:00,
2013-04-03 10:38:00,32.4,15.9,30.32,NNW,338,3.8,5.6,50,0.00,,,0.00,WUHU216HW,2013-04-03 14:38:00,
2013-04-03 10:43:00,32.4,16.2,30.32,NNW,338,1.1,5.6,51,0.00,,,0.00,WUHU216HW,2013-04-03 14:43:00,
2013-04-03 10:48:00,32.0,14.9,30.32,NW,315,4.7,5.4,49,0.00,,,0.00,WUHU216HW,2013-04-03 14:48:00,
2013-04-03 10:53:00,32.0,15.5,30.32,North,0,1.3,5.4,50,0.00,,,0.00,WUHU216HW,2013-04-03 14:53:00,
2013-04-03 10:58:00,32.4,15.9,30.32,NNW,338,2.0,5.4,50,0.00,,,0.00,WUHU216HW,2013-04-03 14:58:00,
2013-04-03 11:04:00,32.8,16.1,30.33,North,0,2.9,5.4,50,0.00,,,0.00,WUHU216HW,2013-04-03 15:04:00,
2013-04-03 11:09:00,33.5,17.6,30.33,SE,135,1.6,5.4,52,0.00,,,0.00,WUHU216HW,2013-04-03 15:09:00,
2013-04-03 11:14:00,34.2,17.5,30.33,West,270,3.4,11.2,50,0.00,,,0.00,WUHU216HW,2013-04-03 15:14:00,
2013-04-03 11:19:00,33.5,15.3,30.34,NW,315,1.6,11.2,47,0.00,,,0.00,WUHU216HW,2013-04-03 15:19:00,
2013-04-03 11:24:00,33.1,15.5,30.34,North,0,1.8,6.3,48,0.00,,,0.00,WUHU216HW,2013-04-03 15:24:00,
2013-04-03 11:30:00,33.3,16.1,30.34,NNW,338,2.7,5.1,49,0.00,,,0.00,WUHU216HW,2013-04-03 15:30:00,
2013-04-03 11:35:00,33.5,15.8,30.34,NNW,338,2.0,2.9,48,0.00,,,0.00,WUHU216HW,2013-04-03 15:35:00,
2013-04-03 11:40:00,33.8,16.1,30.34,NW,315,3.4,3.8,48,0.00,,,0.00,WUHU216HW,2013-04-03 15:40:00,
2013-04-03 11:45:00,34.0,16.3,30.34,SW,225,4.0,9.8,48,0.00,,,0.00,WUHU216HW,2013-04-03 15:45:00,
2013-04-03 11:50:00,34.2,15.9,30.34,NE,45,10.5,10.5,47,0.00,,,0.00,WUHU216HW,2013-04-03 15:50:00,
2013-04-03 11:55:00,34.6,15.3,30.34,NNW,338,2.5,10.5,45,0.00,,,0.00,WUHU216HW,2013-04-03 15:55:00,
2013-04-03 12:01:00,34.9,15.1,30.34,NNE,23,4.0,5.6,44,0.00,,,0.00,WUHU216HW,2013-04-03 16:01:00,
2013-04-03 12:06:00,34.6,15.3,30.34,North,0,3.6,5.4,45,0.00,,,0.00,WUHU216HW,2013-04-03 16:06:00,
2013-04-03 12:11:00,34.9,14.0,30.34,NW,315,2.7,6.5,42,0.00,,,0.00,WUHU216HW,2013-04-03 16:11:00,
2013-04-03 12:16:00,35.3,15.0,30.34,NW,315,1.6,6.5,43,0.00,,,0.00,WUHU216HW,2013-04-03 16:16:00,
2013-04-03 12:21:00,35.3,13.9,30.34,WNW,293,1.1,5.6,41,0.00,,,0.00,WUHU216HW,2013-04-03 16:21:00,
2013-04-03 12:26:00,35.3,14.4,30.35,NNE,23,3.6,5.4,42,0.00,,,0.00,WUHU216HW,2013-04-03 16:26:00,
2013-04-03 12:31:00,35.5,14.6,30.35,North,0,2.9,4.5,42,0.00,,,0.00,WUHU216HW,2013-04-03 16:31:00,
2013-04-03 12:36:00,35.5,13.5,30.35,NNE,23,3.4,6.0,40,0.00,,,0.00,WUHU216HW,2013-04-03 16:36:00,
2013-04-03 12:41:00,35.5,14.6,30.35,NNW,338,5.1,7.6,42,0.00,,,0.00,WUHU216HW,2013-04-03 16:41:00,
2013-04-03 12:46:00,35.8,13.9,30.36,NW,315,2.5,7.6,40,0.00,,,0.00,WUHU216HW,2013-04-03 16:46:00,
2013-04-03 12:51:00,35.8,14.9,30.35,NNE,23,3.6,4.3,42,0.00,,,0.00,WUHU216HW,2013-04-03 16:51:00,
2013-04-03 12:57:00,35.8,14.4,30.36,East,90,3.1,3.6,41,0.00,,,0.00,WUHU216HW,2013-04-03 16:57:00,
2013-04-03 13:02:00,36.0,14.1,30.35,NNW,338,4.7,4.7,40,0.00,,,0.00,WUHU216HW,2013-04-03 17:02:00,
2013-04-03 13:07:00,36.0,14.1,30.35,North,0,4.7,4.7,40,0.00,,,0.00,WUHU216HW,2013-04-03 17:07:00,
2013-04-03 13:12:00,36.0,14.5,30.35,North,0,4.0,4.7,41,0.00,,,0.00,WUHU216HW,2013-04-03 17:12:00,
2013-04-03 13:18:00,36.5,14.5,30.34,NNW,338,5.6,5.6,40,0.00,,,0.00,WUHU216HW,2013-04-03 17:18:00,
2013-04-03 13:23:00,36.7,15.2,30.35,NE,45,1.8,5.6,41,0.00,,,0.00,WUHU216HW,2013-04-03 17:23:00,
2013-04-03 13:28:00,36.5,15.0,30.35,NNE,23,3.4,5.1,41,0.00,,,0.00,WUHU216HW,2013-04-03 17:28:00,
2013-04-03 13:33:00,36.4,13.7,30.34,WNW,293,2.9,5.1,39,0.00,,,0.00,WUHU216HW,2013-04-03 17:33:00,
2013-04-03 13:38:00,36.7,15.7,30.34,North,0,4.9,4.9,42,0.00,,,0.00,WUHU216HW,2013-04-03 17:38:00,
2013-04-03 13:43:00,37.1,13.1,30.34,NNW,338,7.4,7.4,37,0.00,,,0.00,WUHU216HW,2013-04-03 17:43:00,
2013-04-03 13:48:00,37.1,13.7,30.34,North,0,1.1,7.4,38,0.00,,,0.00,WUHU216HW,2013-04-03 17:48:00,
2013-04-03 13:53:00,37.1,13.7,30.34,NE,45,1.1,5.6,38,0.00,,,0.00,WUHU216HW,2013-04-03 17:53:00,
2013-04-03 13:58:00,37.3,13.9,30.34,NNW,338,1.1,8.1,38,0.00,,,0.00,WUHU216HW,2013-04-03 17:58:00,
2013-04-03 14:04:00,37.1,13.7,30.34,NNE,23,2.9,8.1,38,0.00,,,0.00,WUHU216HW,2013-04-03 18:04:00,
2013-04-03 14:09:00,37.3,13.2,30.33,NW,315,1.1,4.0,37,0.00,,,0.00,WUHU216HW,2013-04-03 18:09:00,
2013-04-03 14:14:00,37.4,14.7,30.33,North,0,1.8,4.0,39,0.00,,,0.00,WUHU216HW,2013-04-03 18:14:00,
2013-04-03 14:19:00,38.0,14.5,30.33,North,0,1.1,6.3,38,0.00,,,0.00,WUHU216HW,2013-04-03 18:19:00,
2013-04-03 14:24:00,37.8,14.3,30.33,NNW,338,2.5,6.3,38,0.00,,,0.00,WUHU216HW,2013-04-03 18:24:00,
2013-04-03 14:29:00,38.0,15.1,30.34,NNW,338,2.5,4.9,39,0.00,,,0.00,WUHU216HW,2013-04-03 18:29:00,
2013-04-03 14:34:00,38.3,14.1,30.34,NE,45,2.7,3.1,37,0.00,,,0.00,WUHU216HW,2013-04-03 18:34:00,
2013-04-03 14:39:00,38.2,14.7,30.34,NNW,338,1.8,3.4,38,0.00,,,0.00,WUHU216HW,2013-04-03 18:39:00,
2013-04-03 14:45:00,38.5,13.7,30.33,WNW,293,1.1,5.8,36,0.00,,,0.00,WUHU216HW,2013-04-03 18:45:00,
2013-04-03 14:50:00,38.5,14.3,30.33,NNW,338,2.7,3.4,37,0.00,,,0.00,WUHU216HW,2013-04-03 18:50:00,
2013-04-03 14:55:00,38.9,14.1,30.33,North,0,3.8,6.3,36,0.00,,,0.00,WUHU216HW,2013-04-03 18:55:00,
2013-04-03 15:00:00,39.1,15.5,30.33,NE,45,2.2,6.3,38,0.00,,,0.00,WUHU216HW,2013-04-03 19:00:00,
2013-04-03 15:06:00,38.9,14.7,30.33,NE,45,7.2,7.2,37,0.00,,,0.00,WUHU216HW,2013-04-03 19:06:00,
2013-04-03 15:11:00,39.1,16.1,30.33,ENE,68,2.5,7.2,39,0.00,,,0.00,WUHU216HW,2013-04-03 19:11:00,
2013-04-03 15:16:00,39.2,15.7,30.33,WNW,293,1.3,5.1,38,0.00,,,0.00,WUHU216HW,2013-04-03 19:16:00,
2013-04-03 15:21:00,39.1,14.1,30.33,WNW,293,1.6,5.1,36,0.00,,,0.00,WUHU216HW,2013-04-03 19:21:00,
2013-04-03 15:26:00,39.2,16.3,30.32,South,180,2.2,4.5,39,0.00,,,0.00,WUHU216HW,2013-04-03 19:26:00,
2013-04-03 15:31:00,39.4,15.1,30.32,NE,45,4.7,6.9,37,0.00,,,0.00,WUHU216HW,2013-04-03 19:31:00,
2013-04-03 15:36:00,39.6,14.7,30.33,North,0,2.5,6.9,36,0.00,,,0.00,WUHU216HW,2013-04-03 19:36:00,
2013-04-03 15:41:00,39.8,16.1,30.33,NNW,338,2.5,2.9,38,0.00,,,0.00,WUHU216HW,2013-04-03 19:41:00,
2013-04-03 15:46:00,40.0,16.3,30.32,SSW,203,4.7,4.7,38,0.00,,,0.00,WUHU216HW,2013-04-03 19:46:00,
2013-04-03 15:51:00,40.1,15.8,30.33,North,0,3.4,5.6,37,0.00,,,0.00,WUHU216HW,2013-04-03 19:51:00,
2013-04-03 15:56:00,40.3,15.3,30.33,NNW,338,2.5,5.6,36,0.00,,,0.00,WUHU216HW,2013-04-03 19:56:00,
2013-04-03 16:02:00,40.0,15.7,30.32,WSW,248,2.5,4.3,37,0.00,,,0.00,WUHU216HW,2013-04-03 20:02:00,
2013-04-03 16:07:00,40.1,17.1,30.32,NE,45,0.7,3.8,39,0.00,,,0.00,WUHU216HW,2013-04-03 20:07:00,
2013-04-03 16:12:00,40.3,16.6,30.32,North,0,1.3,4.0,38,0.00,,,0.00,WUHU216HW,2013-04-03 20:12:00,
2013-04-03 16:17:00,40.5,15.5,30.32,West,270,5.1,5.1,36,0.00,,,0.00,WUHU216HW,2013-04-03 20:17:00,
2013-04-03 16:22:00,40.5,14.1,30.32,NW,315,1.1,5.1,34,0.00,,,0.00,WUHU216HW,2013-04-03 20:22:00,
2013-04-03 16:27:00,40.3,15.3,30.32,NNE,23,0.9,3.4,36,0.00,,,0.00,WUHU216HW,2013-04-03 20:27:00,
2013-04-03 16:33:00,40.3,15.3,30.32,NE,45,0.4,2.5,36,0.00,,,0.00,WUHU216HW,2013-04-03 20:33:00,
2013-04-03 16:38:00,40.3,17.3,30.32,SSW,203,1.8,1.8,39,0.00,,,0.00,WUHU216HW,2013-04-03 20:38:00,
2013-04-03 16:43:00,40.9,15.8,30.32,West,270,0.9,6.3,36,0.00,,,0.00,WUHU216HW,2013-04-03 20:43:00,
2013-04-03 16:48:00,40.9,16.5,30.32,West,270,0.9,6.3,37,0.00,,,0.00,WUHU216HW,2013-04-03 20:48:00,
2013-04-03 16:53:00,41.4,16.3,30.32,ENE,68,1.1,3.4,36,0.00,,,0.00,WUHU216HW,2013-04-03 20:53:00,
2013-04-03 16:58:00,41.4,14.3,30.32,NNW,338,2.9,3.4,33,0.00,,,0.00,WUHU216HW,2013-04-03 20:58:00,
2013-04-03 17:04:00,41.2,15.5,30.33,NE,45,1.8,3.4,35,0.00,,,0.00,WUHU216HW,2013-04-03 21:04:00,
2013-04-03 17:09:00,40.9,13.2,30.32,North,0,2.9,3.4,32,0.00,,,0.00,WUHU216HW,2013-04-03 21:09:00,
2013-04-03 17:14:00,40.7,15.7,30.32,NNW,338,2.9,3.1,36,0.00,,,0.00,WUHU216HW,2013-04-03 21:14:00,
2013-04-03 17:19:00,40.7,15.7,30.32,East,90,2.5,3.1,36,0.00,,,0.00,WUHU216HW,2013-04-03 21:19:00,
2013-04-03 17:24:00,40.9,17.1,30.32,SSW,203,1.8,3.6,38,0.00,,,0.00,WUHU216HW,2013-04-03 21:24:00,
2013-04-03 17:29:00,41.4,17.6,30.32,WNW,293,2.9,3.6,38,0.00,,,0.00,WUHU216HW,2013-04-03 21:29:00,
2013-04-03 17:34:00,41.8,17.2,30.32,WNW,293,2.2,3.4,37,0.00,,,0.00,WUHU216HW,2013-04-03 21:34:00,
2013-04-03 17:39:00,41.8,16.6,30.32,West,270,2.7,2.7,36,0.00,,,0.00,WUHU216HW,2013-04-03 21:39:00,
2013-04-03 17:44:00,41.8,14.0,30.32,NNW,338,0.9,2.7,32,0.00,,,0.00,WUHU216HW,2013-04-03 21:44:00,
2013-04-03 17:50:00,41.4,15.6,30.33,NNE,23,2.7,2.7,35,0.00,,,0.00,WUHU216HW,2013-04-03 21:50:00,
2013-04-03 17:55:00,41.4,16.3,30.33,NNE,23,1.6,2.7,36,0.00,,,0.00,WUHU216HW,2013-04-03 21:55:00,
2013-04-03 18:00:00,41.6,16.4,30.33,SW,225,0.0,1.8,36,0.00,,,0.00,WUHU216HW,2013-04-03 22:00:00,
2013-04-03 18:05:00,41.6,16.4,30.33,WNW,293,1.1,1.8,36,0.00,,,0.00,WUHU216HW,2013-04-03 22:05:00,
2013-04-03 18:10:00,41.8,17.2,30.33,WSW,248,0.0,1.1,37,0.00,,,0.00,WUHU216HW,2013-04-03 22:10:00,
2013-04-03 18:16:00,41.8,15.9,30.33,North,0,2.2,3.6,35,0.00,,,0.00,WUHU216HW,2013-04-03 22:16:00,
2013-04-03 18:21:00,41.8,16.6,30.33,NNW,338,1.1,3.6,36,0.00,,,0.00,WUHU216HW,2013-04-03 22:21:00,
2013-04-03 18:26:00,41.9,14.8,30.33,North,0,1.1,1.8,33,0.00,,,0.00,WUHU216HW,2013-04-03 22:26:00,
2013-04-03 18:31:00,41.9,16.8,30.34,West,270,2.7,2.7,36,0.00,,,0.00,WUHU216HW,2013-04-03 22:31:00,
2013-04-03 18:36:00,41.9,16.8,30.34,WSW,248,0.4,2.7,36,0.00,,,0.00,WUHU216HW,2013-04-03 22:36:00,
2013-04-03 18:41:00,42.1,16.2,30.34,West,270,2.0,2.5,35,0.00,,,0.00,WUHU216HW,2013-04-03 22:41:00,
2013-04-03 18:46:00,42.3,17.0,30.34,WSW,248,1.3,3.6,36,0.00,,,0.00,WUHU216HW,2013-04-03 22:46:00,
2013-04-03 18:51:00,42.8,18.2,30.34,SSE,158,0.9,3.6,37,0.00,,,0.00,WUHU216HW,2013-04-03 22:51:00,
2013-04-03 18:56:00,43.9,18.5,30.34,WNW,293,0.0,2.2,36,0.00,,,0.00,WUHU216HW,2013-04-03 22:56:00,
2013-04-03 19:02:00,44.3,18.1,30.34,West,270,2.0,2.2,35,0.00,,,0.00,WUHU216HW,2013-04-03 23:02:00,
2013-04-03 19:07:00,43.6,18.2,30.34,WSW,248,0.4,2.2,36,0.00,,,0.00,WUHU216HW,2013-04-03 23:07:00,
2013-04-03 19:12:00,42.8,17.5,30.34,SE,135,0.4,1.1,36,0.00,,,0.00,WUHU216HW,2013-04-03 23:12:00,
2013-04-03 19:17:00,41.8,16.6,30.33,SE,135,0.0,0.9,36,0.00,,,0.00,WUHU216HW,2013-04-03 23:17:00,
2013-04-03 19:22:00,41.0,16.6,30.33,ESE,113,0.0,0.0,37,0.00,,,0.00,WUHU216HW,2013-04-03 23:22:00,
2013-04-03 19:27:00,40.5,16.1,30.33,ESE,113,0.0,0.0,37,0.00,,,0.00,WUHU216HW,2013-04-03 23:27:00,
2013-04-03 19:33:00,39.8,16.1,30.33,ESE,113,0.0,0.0,38,0.00,,,0.00,WUHU216HW,2013-04-03 23:33:00,
2013-04-03 19:38:00,39.4,15.8,30.33,ESE,113,0.0,0.4,38,0.00,,,0.00,WUHU216HW,2013-04-03 23:38:00,
2013-04-03 19:43:00,38.9,15.9,30.33,ESE,113,0.0,0.4,39,0.00,,,0.00,WUHU216HW,2013-04-03 23:43:00,
2013-04-03 19:48:00,38.5,15.7,30.33,ESE,113,0.0,0.4,39,0.00,,,0.00,WUHU216HW,2013-04-03 23:48:00,
2013-04-03 19:53:00,38.2,15.3,30.33,ESE,113,0.0,0.4,39,0.00,,,0.00,WUHU216HW,2013-04-03 23:53:00,
2013-04-03 19:58:00,37.6,14.9,30.32,ESE,113,0.0,0.0,39,0.00,,,0.00,WUHU216HW,2013-04-03 23:58:00,
2013-04-03 20:04:00,37.3,15.1,30.32,ESE,113,0.0,0.0,40,0.00,,,0.00,WUHU216HW,2013-04-04 00:04:00,
2013-04-03 20:09:00,37.1,15.5,30.32,ESE,113,0.0,0.0,41,0.00,,,0.00,WUHU216HW,2013-04-04 00:09:00,
2013-04-03 20:14:00,36.7,15.2,30.32,ESE,113,0.0,0.0,41,0.00,,,0.00,WUHU216HW,2013-04-04 00:14:00,
2013-04-03 20:19:00,36.2,15.2,30.32,ESE,113,0.0,0.0,42,0.00,,,0.00,WUHU216HW,2013-04-04 00:19:00,
2013-04-03 20:24:00,35.8,14.4,30.31,ESE,113,0.0,0.0,41,0.00,,,0.00,WUHU216HW,2013-04-04 00:24:00,
2013-04-03 20:29:00,35.5,14.6,30.31,ESE,113,0.0,0.0,42,0.00,,,0.00,WUHU216HW,2013-04-04 00:29:00,
2013-04-03 20:34:00,34.9,14.0,30.31,ESE,113,0.0,0.0,42,0.00,,,0.00,WUHU216HW,2013-04-04 00:34:00,
2013-04-03 20:39:00,34.7,13.9,30.31,ESE,113,0.0,0.0,42,0.00,,,0.00,WUHU216HW,2013-04-04 00:39:00,
2013-04-03 20:44:00,34.4,14.0,30.31,ESE,113,0.0,0.2,43,0.00,,,0.00,WUHU216HW,2013-04-04 00:44:00,
2013-04-03 20:49:00,34.6,14.8,30.31,ESE,113,0.0,0.4,44,0.00,,,0.00,WUHU216HW,2013-04-04 00:49:00,
2013-04-03 20:54:00,34.2,14.4,30.31,ESE,113,0.0,0.4,44,0.00,,,0.00,WUHU216HW,2013-04-04 00:54:00,
2013-04-03 20:59:00,33.7,14.4,30.30,ESE,113,0.4,0.7,45,0.00,,,0.00,WUHU216HW,2013-04-04 00:59:00,
2013-04-03 21:04:00,33.8,14.6,30.30,East,90,0.4,1.8,45,0.00,,,0.00,WUHU216HW,2013-04-04 01:04:00,
2013-04-03 21:10:00,34.2,15.4,30.30,SE,135,1.3,1.8,46,0.00,,,0.00,WUHU216HW,2013-04-04 01:10:00,
2013-04-03 21:15:00,34.0,15.3,30.30,ESE,113,0.2,1.8,46,0.00,,,0.00,WUHU216HW,2013-04-04 01:15:00,
2013-04-03 21:20:00,33.8,15.6,30.30,ESE,113,0.4,1.8,47,0.00,,,0.00,WUHU216HW,2013-04-04 01:20:00,
2013-04-03 21:25:00,33.7,15.4,30.30,SE,135,0.4,0.9,47,0.00,,,0.00,WUHU216HW,2013-04-04 01:25:00,
2013-04-03 21:30:00,33.7,15.4,30.30,ENE,68,0.4,0.9,47,0.00,,,0.00,WUHU216HW,2013-04-04 01:30:00,
2013-04-03 21:35:00,33.5,15.8,30.30,ESE,113,0.0,0.9,48,0.00,,,0.00,WUHU216HW,2013-04-04 01:35:00,
2013-04-03 21:40:00,33.3,15.6,30.31,ESE,113,0.7,0.9,48,0.00,,,0.00,WUHU216HW,2013-04-04 01:40:00,
2013-04-03 21:45:00,32.9,15.8,30.31,South,180,0.4,0.7,49,0.00,,,0.00,WUHU216HW,2013-04-04 01:45:00,
2013-04-03 21:50:00,32.8,15.7,30.31,SSE,158,1.8,1.8,49,0.00,,,0.00,WUHU216HW,2013-04-04 01:50:00,
2013-04-03 21:55:00,32.6,15.9,30.32,South,180,2.5,3.6,50,0.00,,,0.00,WUHU216HW,2013-04-04 01:55:00,
2013-04-03 22:00:00,32.6,15.9,30.32,SSE,158,5.4,5.4,50,0.00,,,0.00,WUHU216HW,2013-04-04 02:00:00,
2013-04-03 22:05:00,32.8,17.0,30.32,SSE,158,1.6,5.4,52,0.00,,,0.00,WUHU216HW,2013-04-04 02:05:00,
2013-04-03 22:10:00,32.8,17.0,30.32,South,180,1.8,5.4,52,0.00,,,0.00,WUHU216HW,2013-04-04 02:10:00,
2013-04-03 22:15:00,32.8,16.6,30.32,South,180,2.5,4.3,51,0.00,,,0.00,WUHU216HW,2013-04-04 02:15:00,
2013-04-03 22:20:00,32.6,15.9,30.32,South,180,1.8,2.9,50,0.00,,,0.00,WUHU216HW,2013-04-04 02:20:00,
2013-04-03 22:25:00,32.4,15.9,30.32,SSW,203,2.0,2.0,50,0.00,,,0.00,WUHU216HW,2013-04-04 02:25:00,
2013-04-03 22:30:00,32.2,16.9,30.32,SSE,158,2.5,2.5,53,0.00,,,0.00,WUHU216HW,2013-04-04 02:30:00,
2013-04-03 22:35:00,32.2,16.9,30.32,South,180,1.8,3.4,53,0.00,,,0.00,WUHU216HW,2013-04-04 02:35:00,
2013-04-03 22:40:00,32.0,16.4,30.32,SSE,158,3.1,3.4,52,0.00,,,0.00,WUHU216HW,2013-04-04 02:40:00,
2013-04-03 22:45:00,32.0,16.7,30.32,SSW,203,1.8,3.1,53,0.00,,,0.00,WUHU216HW,2013-04-04 02:45:00,
2013-04-03 22:50:00,31.9,17.0,30.32,SSW,203,1.3,2.7,54,0.00,,,0.00,WUHU216HW,2013-04-04 02:50:00,
2013-04-03 22:55:00,31.7,16.8,30.32,South,180,0.9,1.8,54,0.00,,,0.00,WUHU216HW,2013-04-04 02:55:00,
2013-04-03 23:00:00,31.5,16.3,30.31,SSE,158,1.8,1.8,53,0.00,,,0.00,WUHU216HW,2013-04-04 03:00:00,
2013-04-03 23:05:00,31.3,16.1,30.31,SSE,158,0.7,1.8,53,0.00,,,0.00,WUHU216HW,2013-04-04 03:05:00,
2013-04-03 23:10:00,31.0,15.8,30.31,South,180,0.7,1.8,53,0.00,,,0.00,WUHU216HW,2013-04-04 03:10:00,
2013-04-03 23:15:00,30.8,15.6,30.31,South,180,0.9,1.8,53,0.00,,,0.00,WUHU216HW,2013-04-04 03:15:00,
2013-04-03 23:20:00,30.6,15.8,30.31,South,180,0.4,1.8,54,0.00,,,0.00,WUHU216HW,2013-04-04 03:20:00,
2013-04-03 23:25:00,30.6,15.8,30.30,South,180,0.0,1.3,54,0.00,,,0.00,WUHU216HW,2013-04-04 03:25:00,
2013-04-03 23:30:00,30.4,16.1,30.30,South,180,0.0,0.9,55,0.00,,,0.00,WUHU216HW,2013-04-04 03:30:00,
2013-04-03 23:35:00,30.1,15.8,30.30,South,180,0.0,0.4,55,0.00,,,0.00,WUHU216HW,2013-04-04 03:35:00,
2013-04-03 23:40:00,29.9,15.6,30.30,South,180,0.0,0.0,55,0.00,,,0.00,WUHU216HW,2013-04-04 03:40:00,
2013-04-03 23:45:00,29.9,16.0,30.30,South,180,0.0,0.0,56,0.00,,,0.00,WUHU216HW,2013-04-04 03:45:00,
2013-04-03 23:50:00,29.7,15.8,30.30,South,180,0.0,0.0,56,0.00,,,0.00,WUHU216HW,2013-04-04 03:50:00,
2013-04-03 23:55:00,29.5,16.1,30.30,South,180,0.0,0.0,57,0.00,,,0.00,WUHU216HW,2013-04-04 03:55:00,